Time;durP1;ratioP1;P1;durP2;ratioP2;P2;SDS_P1;SDS_P2;PMS_P1;PMS_P2;Temp;Humidity;BMP_temperature;BMP_pressure;BME280_temperature;BME280_humidity;BME280_pressure;Samples;Min_cycle;Max_cycle;Signal;HPM_P1;HPM_P2
2022/10/14 00:01:25;;;;;;;40.47;32.90;;;14.60;99.90;;;14.70;95.59;101371.34;5035878;28;20093;-70
2022/10/14 00:03:55;;;;;;;40.22;32.22;;;14.40;99.90;;;14.61;96.65;101367.94;5035791;28;20041;-70
2022/10/14 00:06:28;;;;;;;38.55;32.13;;;14.20;99.90;;;14.59;96.67;101370.63;5035442;28;20045;-70
2022/10/14 00:09:00;;;;;;;37.13;31.25;;;14.20;99.90;;;14.66;96.79;101366.06;5035653;28;20501;-71
2022/10/14 00:11:31;;;;;;;43.53;34.40;;;14.20;99.90;;;14.62;96.83;101359.91;5035775;28;20048;-70
2022/10/14 00:14:03;;;;;;;37.75;32.13;;;14.30;99.90;;;14.59;97.03;101362.63;5035926;28;20042;-71
2022/10/14 00:16:35;;;;;;;40.50;33.13;;;14.20;99.90;;;14.36;97.16;101348.72;5035335;28;20049;-71
2022/10/14 00:19:04;;;;;;;43.22;33.90;;;14.10;99.90;;;14.09;99.20;101336.56;5035328;28;20525;-71
2022/10/14 00:21:34;;;;;;;45.45;34.30;;;13.80;99.90;;;13.97;100.00;101317.22;5034165;28;20518;-71
2022/10/14 00:24:03;;;;;;;46.90;37.05;;;13.70;99.90;;;13.79;100.00;101328.03;5035488;28;20053;-70
2022/10/14 00:26:34;;;;;;;50.50;38.03;;;13.50;99.90;;;13.66;100.00;101323.75;5035334;28;20048;-70
2022/10/14 00:29:05;;;;;;;54.13;40.50;;;13.40;99.90;;;13.68;100.00;101313.97;5034025;28;20045;-70
2022/10/14 00:31:34;;;;;;;53.78;39.70;;;13.40;99.90;;;13.49;100.00;101271.63;5033809;28;20072;-71
2022/10/14 00:34:03;;;;;;;54.38;42.00;;;13.40;99.90;;;13.73;100.00;101301.50;5035260;28;20076;-71
2022/10/14 00:36:34;;;;;;;56.90;43.28;;;13.40;99.90;;;13.83;100.00;101314.72;5033915;28;20049;-71
2022/10/14 00:39:03;;;;;;;56.42;44.20;;;13.40;99.90;;;13.90;100.00;101305.75;5035118;28;20045;-70
2022/10/14 00:41:35;;;;;;;57.65;45.05;;;13.50;99.90;;;13.91;100.00;101304.88;5035072;28;20073;-70
2022/10/14 00:44:07;;;;;;;59.88;45.85;;;13.60;99.90;;;14.01;100.00;101309.19;5035077;28;20042;-67
2022/10/14 00:46:37;;;;;;;62.05;44.97;;;13.60;99.90;;;14.02;100.00;101299.41;5034731;28;20526;-68
2022/10/14 00:49:11;;;;;;;61.80;46.58;;;13.70;99.90;;;13.94;100.00;101280.00;5033632;28;20399;-67
2022/10/14 00:51:45;;;;;;;58.60;46.85;;;13.70;99.90;;;13.96;100.00;101291.50;5034974;28;20141;-67
2022/10/14 00:54:16;;;;;;;67.55;51.45;;;13.60;99.90;;;14.04;100.00;101294.97;5034302;28;20084;-67
2022/10/14 00:56:47;;;;;;;69.85;52.53;;;13.70;99.90;;;14.14;100.00;101299.28;5034991;28;20045;-68
2022/10/14 00:59:16;;;;;;;72.55;54.90;;;13.70;99.90;;;14.38;100.00;101305.19;5034902;28;20069;-68
2022/10/14 01:01:44;;;;;;;67.20;53.70;;;14.00;99.90;;;14.51;100.00;101303.28;5034692;28;20072;-68
2022/10/14 01:04:13;;;;;;;65.22;51.75;;;14.10;99.90;;;14.50;100.00;101308.63;5034787;28;20076;-67
2022/10/14 01:06:53;;;;;;;70.97;51.47;;;14.20;99.90;;;14.63;100.00;101315.53;5034763;28;20060;-67
2022/10/14 01:09:30;;;;;;;65.40;49.92;;;14.20;99.90;;;14.63;100.00;101311.09;5034746;28;20124;-68
2022/10/14 01:12:09;;;;;;;68.95;51.97;;;14.30;99.90;;;14.71;100.00;101309.19;5033443;28;20049;-68
2022/10/14 01:15:09;;;;;;;66.22;49.95;;;14.40;99.90;;;14.51;100.00;101263.34;5034408;28;20044;-68
2022/10/14 01:17:51;;;;;;;68.68;49.03;;;14.40;99.90;;;14.78;100.00;101305.53;5033083;28;20049;-68
2022/10/14 01:20:43;;;;;;;65.63;49.95;;;14.40;99.90;;;14.80;100.00;101300.19;5034685;28;20078;-67
2022/10/14 01:24:01;;;;;;;69.50;51.78;;;14.50;99.90;;;14.57;100.00;101304.97;5033683;28;20049;-67
2022/10/14 01:26:52;;;;;;;66.30;51.70;;;14.30;99.90;;;14.46;100.00;101300.66;5019956;28;20061;-67
2022/10/14 01:30:09;;;;;;;73.20;52.83;;;14.20;99.90;;;14.41;100.00;101293.66;5033962;28;20053;-68
2022/10/14 01:32:50;;;;;;;72.65;52.20;;;14.10;99.90;;;14.66;100.00;101295.06;5003203;28;20103;-68
2022/10/14 01:35:31;;;;;;;65.38;49.80;;;14.20;99.90;;;14.81;100.00;101296.59;5049457;28;20055;-68
2022/10/14 01:38:03;;;;;;;70.22;52.58;;;14.40;99.90;;;14.75;100.00;101289.59;5034245;28;20051;-68
2022/10/14 01:40:36;;;;;;;69.05;51.53;;;14.40;99.90;;;14.80;100.00;101290.44;5049400;28;20057;-68
2022/10/14 01:43:05;;;;;;;68.55;51.42;;;14.40;99.90;;;14.77;100.00;101286.94;5033803;28;20107;-68
2022/10/14 01:45:37;;;;;;;71.47;53.17;;;14.40;99.90;;;14.59;100.00;101280.09;5049202;28;20088;-68
2022/10/14 01:48:06;;;;;;;70.05;52.00;;;14.30;99.90;;;14.63;100.00;101270.28;5032627;28;20048;-68
2022/10/14 01:50:37;;;;;;;75.78;53.08;;;14.30;99.90;;;14.55;100.00;101275.72;5033777;28;20095;-68
2022/10/14 01:53:10;;;;;;;72.53;54.75;;;14.20;99.90;;;14.59;100.00;101272.09;5033843;28;20063;-68
2022/10/14 01:55:44;;;;;;;71.70;54.10;;;14.20;99.90;;;14.63;100.00;101270.28;5048661;28;20072;-68
2022/10/14 01:58:15;;;;;;;86.80;61.10;;;14.20;99.90;;;14.25;100.00;101238.81;5033736;28;20052;-67
2022/10/14 02:00:46;;;;;;;82.35;59.80;;;14.10;99.90;;;14.34;100.00;101250.25;5032326;28;20053;-68
2022/10/14 02:03:15;;;;;;;84.93;60.80;;;14.10;99.90;;;14.35;100.00;101261.78;5032277;28;20065;-68
2022/10/14 02:05:49;;;;;;;86.25;62.15;;;14.00;99.90;;;14.27;100.00;101260.97;5031730;28;20060;-67
2022/10/14 02:08:28;;;;;;;86.25;62.05;;;13.90;99.90;;;14.34;100.00;101260.91;5033104;28;20496;-67
2022/10/14 02:11:07;;;;;;;88.72;61.28;;;14.00;99.90;;;14.41;100.00;101261.69;5033339;28;20051;-68
2022/10/14 02:13:53;;;;;;;85.72;62.92;;;14.00;99.90;;;14.54;100.00;101259.75;5032060;28;20171;-68
2022/10/14 02:16:36;;;;;;;80.97;59.55;;;14.10;99.90;;;14.55;100.00;101265.06;5031986;28;20060;-68
2022/10/14 02:19:19;;;;;;;85.10;59.00;;;14.20;99.90;;;14.45;100.00;101253.66;5031914;28;20407;-67
2022/10/14 02:21:54;;;;;;;83.90;58.83;;;14.10;99.90;;;14.41;100.00;101254.59;5032934;28;20483;-68
2022/10/14 02:24:30;;;;;;;88.53;60.85;;;14.00;99.90;;;14.39;100.00;101248.44;5033174;28;20099;-67
2022/10/14 02:27:06;;;;;;;92.10;60.28;;;14.00;99.90;;;14.40;100.00;101246.66;5031823;28;20498;-68
2022/10/14 02:29:36;;;;;;;83.45;57.90;;;14.10;99.90;;;14.34;100.00;101241.41;5031780;28;20049;-68
2022/10/14 02:32:07;;;;;;;81.60;57.58;;;14.00;99.90;;;14.42;100.00;101239.50;5032662;28;20136;-67
2022/10/14 02:34:37;;;;;;;81.45;55.42;;;14.10;99.90;;;14.52;100.00;101234.94;5031710;28;20049;-68
2022/10/14 02:37:10;;;;;;;81.47;56.75;;;14.10;99.90;;;14.56;100.00;101240.19;5031609;28;20080;-67
2022/10/14 02:39:44;;;;;;;81.32;55.10;;;14.20;99.90;;;14.62;100.00;101232.09;5032878;28;20037;-68
2022/10/14 02:42:12;;;;;;;77.75;54.58;;;14.20;99.90;;;14.68;100.00;101229.34;5048248;28;20077;-68
2022/10/14 02:44:53;;;;;;;84.45;56.03;;;14.30;99.90;;;14.72;100.00;101228.41;5031521;28;20059;-68
2022/10/14 02:47:24;;;;;;;87.18;55.65;;;14.30;99.90;;;14.68;100.00;101223.13;5031485;28;20487;-68
2022/10/14 02:49:53;;;;;;;85.93;56.92;;;14.40;99.90;;;14.83;100.00;101226.44;5032740;28;20073;-68
2022/10/14 02:52:24;;;;;;;77.90;53.67;;;14.50;99.90;;;14.84;100.00;101222.00;5031407;28;20041;-70
2022/10/14 02:54:53;;;;;;;80.68;56.60;;;14.50;99.90;;;14.77;100.00;101205.22;5032637;28;20080;-68
2022/10/14 02:57:22;;;;;;;87.93;57.17;;;14.50;99.90;;;14.80;100.00;101206.97;5031042;28;20049;-68
2022/10/14 02:59:50;;;;;;;82.22;55.17;;;14.50;99.90;;;14.73;100.00;101214.19;5032389;28;20046;-68
2022/10/14 03:02:19;;;;;;;79.15;54.17;;;14.40;99.90;;;14.82;100.00;101199.84;5031279;28;20065;-67
2022/10/14 03:04:49;;;;;;;87.47;56.67;;;14.50;99.90;;;14.61;100.00;101195.75;5031262;28;20088;-68
2022/10/14 03:07:17;;;;;;;85.63;55.30;;;14.40;99.90;;;14.55;100.00;101190.53;5047781;28;20048;-67
2022/10/14 03:09:49;;;;;;;85.30;54.70;;;14.30;99.90;;;14.73;100.00;101205.34;5031334;28;20494;-67
2022/10/14 03:12:17;;;;;;;86.13;56.90;;;14.40;99.90;;;14.67;100.00;101192.13;5032388;28;20041;-67
2022/10/14 03:14:46;;;;;;;99.05;57.08;;;14.30;99.90;;;14.53;100.00;101184.34;5030854;28;20041;-68
2022/10/14 03:17:17;;;;;;;92.00;57.08;;;14.20;99.90;;;14.53;100.00;101187.00;5031222;28;20056;-67
2022/10/14 03:19:46;;;;;;;88.55;55.10;;;14.20;99.90;;;14.78;100.00;101187.47;5051870;28;20475;-68
2022/10/14 03:22:16;;;;;;;94.03;56.80;;;14.40;99.90;;;14.69;100.00;101179.66;5035185;28;20064;-68
2022/10/14 03:24:45;;;;;;;94.23;58.60;;;14.30;99.90;;;14.80;100.00;101175.91;5051843;28;20067;-68
2022/10/14 03:27:26;;;;;;;101.40;60.28;;;14.40;99.90;;;14.74;100.00;101184.00;5035174;28;20050;-68
2022/10/14 03:30:00;;;;;;;97.25;59.63;;;14.40;99.90;;;14.70;100.00;101176.97;5035205;28;20077;-68
2022/10/14 03:32:29;;;;;;;91.28;56.47;;;14.40;99.90;;;14.73;100.00;101168.03;5034858;28;20061;-68
2022/10/14 03:35:17;;;;;;;101.57;61.28;;;14.40;99.90;;;14.90;100.00;101164.19;5035498;28;20414;-68
2022/10/14 03:37:52;;;;;;;97.50;59.97;;;14.50;99.90;;;14.81;100.00;101161.66;5035064;28;20376;-67
2022/10/14 03:40:22;;;;;;;99.43;60.53;;;14.50;99.90;;;14.81;100.00;101158.13;5035067;28;20490;-68
2022/10/14 03:42:51;;;;;;;105.72;62.00;;;14.50;99.90;;;14.92;100.00;101153.50;5034934;28;20445;-67
2022/10/14 03:45:21;;;;;;;103.65;61.45;;;14.60;99.90;;;14.97;100.00;101159.63;5035017;28;20048;-68
2022/10/14 03:47:49;;;;;;;103.20;61.95;;;14.60;99.90;;;14.95;100.00;101161.44;5036229;28;20052;-68
2022/10/14 03:50:18;;;;;;;105.72;63.08;;;14.60;99.90;;;15.02;100.00;101153.31;5034892;28;20069;-67
2022/10/14 03:52:51;;;;;;;108.72;64.38;;;14.70;99.90;;;14.83;100.00;101143.88;5034900;28;20438;-67
2022/10/14 03:55:32;;;;;;;98.93;62.42;;;14.50;99.90;;;14.82;100.00;101138.59;5035048;28;20080;-68
2022/10/14 03:58:01;;;;;;;102.00;60.45;;;14.50;99.90;;;14.81;100.00;101134.16;5035238;28;20488;-68
2022/10/14 04:00:31;;;;;;;105.18;60.17;;;14.50;99.90;;;14.73;100.00;101138.75;5034808;28;20049;-68
2022/10/14 04:03:13;;;;;;;98.30;58.33;;;14.40;99.90;;;14.73;100.00;101142.28;5034575;28;20049;-69
2022/10/14 04:05:43;;;;;;;102.20;58.43;;;14.40;99.90;;;14.73;100.00;101134.28;5034543;28;20060;-68
2022/10/14 04:08:18;;;;;;;106.85;59.08;;;14.40;99.90;;;14.81;100.00;101136.81;5034542;28;20475;-68
2022/10/14 04:10:53;;;;;;;104.25;59.22;;;14.40;99.90;;;14.80;100.00;101127.97;5051004;28;20045;-68
2022/10/14 04:13:23;;;;;;;111.45;59.88;;;14.50;99.90;;;14.74;100.00;101133.41;5034438;28;20407;-67
2022/10/14 04:15:51;;;;;;;99.50;57.88;;;14.40;99.90;;;14.74;100.00;101132.50;5034394;28;20111;-69
2022/10/14 04:18:24;;;;;;;101.57;56.28;;;14.40;99.90;;;14.83;100.00;101125.25;5034047;28;20057;-67
2022/10/14 04:20:55;;;;;;;97.07;56.47;;;14.50;99.90;;;14.80;100.00;101125.31;5034271;28;20053;-67
2022/10/14 04:23:26;;;;;;;99.00;58.42;;;14.40;99.90;;;14.69;100.00;101119.25;5034152;28;20484;-67
2022/10/14 04:26:04;;;;;;;96.63;55.78;;;14.40;99.90;;;14.67;100.00;101121.09;5035454;28;20081;-67
2022/10/14 04:28:34;;;;;;;93.53;55.25;;;14.30;99.90;;;14.70;100.00;101120.16;5033672;28;20049;-67
2022/10/14 04:31:10;;;;;;;97.07;54.95;;;14.40;99.90;;;14.66;100.00;101119.34;5049438;28;20148;-67
2022/10/14 04:33:50;;;;;;;;;;;14.30;99.90;;;14.72;100.00;101119.22;5035784;28;20115;-67
2022/10/14 04:36:25;;;;;;;100.57;54.20;;;14.30;99.90;;;14.78;100.00;101115.56;5050533;28;19979;-67
2022/10/14 04:38:57;;;;;;;;;;;14.40;99.90;;;14.75;100.00;101116.50;5034299;28;20068;-67
2022/10/14 04:41:25;;;;;;;88.32;53.45;;;14.40;99.90;;;14.78;100.00;101105.81;5035166;28;19921;-67
2022/10/14 04:43:56;;;;;;;91.35;52.72;;;14.40;99.90;;;14.97;100.00;101101.03;5033833;28;20033;-67
2022/10/14 04:46:36;;;;;;;;;;;14.60;99.90;;;15.01;100.00;101113.38;5034227;28;20056;-67
2022/10/14 04:49:05;;;;;;;88.10;51.20;;;14.60;99.90;;;15.14;100.00;101102.47;5050271;28;20282;-67
2022/10/14 04:51:39;;;;;;;83.28;49.25;;;14.70;99.90;;;15.11;100.00;101107.84;5033609;28;20069;-67
2022/10/14 04:54:19;;;;;;;82.07;48.88;;;14.80;99.90;;;15.12;100.00;101093.63;5033685;28;20577;-66
2022/10/14 04:56:55;;;;;;;74.50;46.20;;;14.80;99.90;;;14.99;100.00;101081.44;5034873;28;20049;-67
2022/10/14 04:59:23;;;;;;;70.97;45.22;;;14.80;99.90;;;15.01;100.00;101084.06;5050040;28;20049;-66
2022/10/14 05:02:21;;;;;;;77.80;46.97;;;14.70;99.90;;;15.11;100.00;101081.22;5021119;28;20049;-67
2022/10/14 05:04:59;;;;;;;72.35;43.92;;;14.70;99.90;;;14.89;100.00;101060.31;5033082;28;20119;-66
2022/10/14 05:07:30;;;;;;;61.20;40.13;;;14.70;99.90;;;15.04;100.00;101062.72;5034722;28;20056;-66
2022/10/14 05:10:11;;;;;;;58.50;38.67;;;14.70;99.90;;;14.92;100.00;101066.50;5049912;28;20041;-66
2022/10/14 05:12:42;;;;;;;51.67;35.10;;;14.60;99.90;;;15.13;100.00;101068.75;5034537;28;20041;-67
2022/10/14 05:15:11;;;;;;;48.33;33.05;;;14.80;99.90;;;14.95;100.00;101029.13;5033154;28;20526;-66
2022/10/14 05:17:53;;;;;;;42.20;29.27;;;14.80;99.90;;;15.21;100.00;101065.91;5049795;28;20037;-68
2022/10/14 05:20:28;;;;;;;34.80;26.40;;;14.90;99.90;;;15.10;100.00;101060.78;5034426;28;20056;-67
2022/10/14 05:22:58;;;;;;;29.90;24.52;;;14.80;99.90;;;15.12;100.00;101056.31;5033144;28;20503;-67
2022/10/14 05:25:27;;;;;;;32.72;25.75;;;14.80;99.90;;;15.09;100.00;101052.84;5032958;28;20049;-66
2022/10/14 05:27:56;;;;;;;29.35;24.58;;;14.80;99.90;;;15.09;100.00;101048.38;5032996;28;20483;-67
2022/10/14 05:30:25;;;;;;;32.03;24.92;;;14.80;99.90;;;15.04;100.00;101039.59;5032648;28;20095;-67
2022/10/14 05:33:01;;;;;;;34.72;25.45;;;14.80;99.90;;;15.12;100.00;101045.66;5032680;28;20064;-67
2022/10/14 05:35:30;;;;;;;33.45;25.67;;;14.80;99.90;;;15.08;100.00;101043.06;5032775;28;20049;-67
2022/10/14 05:38:19;;;;;;;40.13;28.08;;;14.80;99.90;;;14.89;100.00;101007.94;5049410;28;20100;-68
2022/10/14 05:40:53;;;;;;;35.47;27.63;;;14.80;99.90;;;15.06;100.00;101034.25;5032492;28;20046;-67
2022/10/14 05:43:24;;;;;;;38.53;28.13;;;14.80;99.90;;;14.96;100.00;101033.53;5032685;28;20399;-67
2022/10/14 05:46:00;;;;;;;44.25;30.95;;;14.70;99.90;;;14.96;100.00;101038.00;5032917;28;20060;-67
2022/10/14 05:48:31;;;;;;;43.60;30.92;;;14.70;99.90;;;15.06;100.00;101035.13;5049274;28;20144;-67
2022/10/14 05:51:02;;;;;;;40.30;30.00;;;14.80;99.90;;;15.04;100.00;101033.41;5032445;28;20140;-66
2022/10/14 05:53:32;;;;;;;41.55;29.15;;;14.80;99.90;;;15.05;100.00;101037.81;5032429;28;20495;-66
2022/10/14 05:56:09;;;;;;;46.10;31.98;;;14.80;99.90;;;15.03;100.00;101034.31;5032553;28;20049;-68
2022/10/14 05:58:39;;;;;;;42.40;30.58;;;14.80;99.90;;;15.07;100.00;101025.34;5032385;28;20076;-67
2022/10/14 06:01:10;;;;;;;40.20;29.42;;;14.80;99.90;;;15.18;100.00;101033.97;5032402;28;20072;-67
2022/10/14 06:03:41;;;;;;;41.80;29.58;;;14.90;99.90;;;15.25;100.00;101019.66;5048659;28;20558;-67
2022/10/14 06:06:13;;;;;;;46.55;32.35;;;15.00;99.90;;;15.21;100.00;101028.63;5032252;28;20046;-67
2022/10/14 06:08:42;;;;;;;42.55;30.77;;;15.00;99.90;;;15.36;100.00;101026.50;5032297;28;20135;-67
2022/10/14 06:11:13;;;;;;;55.70;35.92;;;15.10;99.90;;;15.39;100.00;101020.19;5032224;28;20514;-67
2022/10/14 06:13:41;;;;;;;58.03;37.13;;;15.10;99.90;;;15.32;100.00;101022.16;5033511;28;20049;-68
2022/10/14 06:16:10;;;;;;;56.63;36.65;;;15.20;99.90;;;15.34;100.00;100998.13;5032186;28;20041;-67
2022/10/14 06:18:39;;;;;;;66.72;39.65;;;15.30;99.90;;;15.51;100.00;101016.44;5033171;28;20041;-66
2022/10/14 06:21:12;;;;;;;70.93;42.25;;;15.30;99.90;;;15.61;100.00;101018.88;5032168;28;20054;-67
2022/10/14 06:23:41;;;;;;;75.60;44.00;;;15.40;99.90;;;15.63;100.00;101002.81;5033426;28;20053;-66
2022/10/14 06:26:09;;;;;;;79.30;44.80;;;15.50;99.90;;;15.69;100.00;101016.03;5033279;28;20038;-67
2022/10/14 06:28:39;;;;;;;75.55;43.78;;;15.50;99.90;;;15.78;100.00;101023.81;5033008;28;20041;-67
2022/10/14 06:31:07;;;;;;;73.68;45.05;;;15.50;99.90;;;15.81;100.00;101021.97;5032809;28;20068;-67
2022/10/14 06:33:36;;;;;;;79.50;44.30;;;15.60;99.90;;;15.87;100.00;101011.13;5032664;28;20053;-67
2022/10/14 06:36:05;;;;;;;75.00;44.25;;;15.60;99.90;;;15.94;100.00;101007.41;5032655;28;20049;-67
2022/10/14 06:38:34;;;;;;;76.40;43.13;;;15.70;99.90;;;15.91;100.00;101003.94;5032853;28;20046;-66
2022/10/14 06:41:02;;;;;;;80.63;44.92;;;15.70;99.90;;;15.93;100.00;101000.31;5032870;28;20047;-66
2022/10/14 06:43:30;;;;;;;77.03;44.30;;;15.70;99.90;;;15.94;100.00;100994.06;5032768;28;20360;-67
2022/10/14 06:46:00;;;;;;;75.78;43.22;;;15.80;99.90;;;16.05;100.00;101013.38;5032752;28;20045;-66
2022/10/14 06:48:29;;;;;;;72.57;42.60;;;15.80;99.90;;;16.05;100.00;101002.69;5032911;28;20431;-67
2022/10/14 06:50:59;;;;;;;68.20;40.83;;;15.80;99.90;;;15.76;100.00;100942.94;5031757;28;20064;-68
2022/10/14 06:53:28;;;;;;;68.97;40.83;;;15.80;99.90;;;16.16;100.00;101005.09;5031974;28;20038;-70
2022/10/14 06:56:02;;;;;;;65.97;39.67;;;15.90;99.90;;;16.18;100.00;100996.13;5032671;28;20407;-68
2022/10/14 06:58:31;;;;;;;61.45;38.97;;;15.90;99.90;;;16.14;100.00;100989.09;5032990;28;20116;-69
2022/10/14 07:01:04;;;;;;;63.30;38.08;;;16.00;99.90;;;16.21;100.00;101001.41;5032661;28;20128;-69
2022/10/14 07:03:37;;;;;;;59.58;37.45;;;16.00;99.90;;;16.14;100.00;101006.94;5032680;28;20060;-68
2022/10/14 07:06:07;;;;;;;59.05;36.92;;;16.00;99.90;;;16.19;100.00;101002.34;5032418;28;20052;-69
2022/10/14 07:08:36;;;;;;;55.05;35.10;;;15.90;99.90;;;16.23;100.00;100993.34;5031289;28;20517;-68
2022/10/14 07:11:05;;;;;;;55.35;37.00;;;15.90;99.90;;;16.25;100.00;100997.75;5032494;28;20103;-69
2022/10/14 07:13:34;;;;;;;54.92;37.10;;;16.00;99.90;;;16.31;100.00;100993.16;5032495;28;20109;-67
2022/10/14 07:16:04;;;;;;;58.97;38.20;;;16.00;99.90;;;16.30;100.00;100997.59;5032809;28;20049;-68
2022/10/14 07:18:32;;;;;;;56.50;36.40;;;16.10;99.90;;;16.40;100.00;100987.56;5047801;28;20052;-68
2022/10/14 07:21:03;;;;;;;58.80;37.30;;;16.10;99.90;;;16.28;100.00;100994.09;5032373;28;20037;-73
2022/10/14 07:23:31;;;;;;;;;;;16.00;99.90;;;16.23;100.00;100988.00;5032930;28;20050;-77
2022/10/14 07:26:00;;;;;;;59.28;38.33;;;16.00;99.90;;;16.19;100.00;100992.56;5032177;28;19974;-79
2022/10/14 07:28:29;;;;;;;56.70;38.40;;;16.00;99.90;;;16.26;100.00;100993.25;5032143;28;20037;-77
2022/10/14 07:31:05;;;;;;;52.90;36.20;;;16.00;99.90;;;16.32;100.00;100993.09;5032412;28;20372;-76
2022/10/14 07:33:35;;;;;;;50.40;35.13;;;16.10;99.90;;;16.38;100.00;100997.41;5031004;28;20045;-76
2022/10/14 07:36:08;;;;;;;50.45;35.28;;;16.10;99.90;;;16.30;100.00;101004.75;5032415;28;20041;-72
2022/10/14 07:38:37;;;;;;;57.13;36.17;;;16.10;99.90;;;16.37;100.00;100999.22;5032180;28;20053;-73
2022/10/14 07:41:15;;;;;;;54.72;36.13;;;16.10;99.90;;;16.41;100.00;101000.91;5032029;28;20045;-72
2022/10/14 07:43:44;;;;;;;54.67;36.58;;;16.10;99.90;;;16.25;100.00;100983.50;5032015;28;20041;-70
2022/10/14 07:46:17;;;;;;;65.55;39.42;;;16.10;99.90;;;16.34;100.00;100987.75;5032299;28;20037;-69
2022/10/14 07:48:45;;;;;;;60.53;37.72;;;16.10;99.90;;;16.41;100.00;100994.66;5032213;28;20046;-66
2022/10/14 07:51:24;;;;;;;57.25;36.05;;;16.10;99.90;;;16.44;100.00;100998.13;5032370;28;20046;-66
2022/10/14 07:53:53;;;;;;;49.45;34.25;;;16.20;99.90;;;16.31;100.00;100979.78;5032230;28;20120;-69
2022/10/14 07:56:22;;;;;;;50.95;34.55;;;16.20;99.90;;;16.38;100.00;100987.59;5047457;28;20045;-69
2022/10/14 07:58:51;;;;;;;50.17;34.70;;;16.10;99.90;;;16.43;100.00;101001.72;5032464;28;20041;-72
2022/10/14 08:01:22;;;;;;;49.28;34.10;;;16.20;99.90;;;16.52;100.00;100992.63;5032212;28;20446;-69
2022/10/14 08:03:52;;;;;;;48.45;32.40;;;16.20;99.90;;;16.49;100.00;100996.22;5032856;28;20641;-69
2022/10/14 08:06:21;;;;;;;43.40;29.25;;;16.30;99.90;;;16.49;100.00;100998.91;5035592;28;20578;-71
2022/10/14 08:08:49;;;;;;;38.75;27.63;;;16.30;99.90;;;16.56;100.00;100991.63;5036115;28;20077;-67
2022/10/14 08:11:21;;;;;;;36.67;26.98;;;16.30;99.90;;;16.61;100.00;100992.34;5035436;28;20045;-69
2022/10/14 08:13:50;;;;;;;35.65;25.45;;;16.30;99.90;;;16.56;100.00;100981.81;5035417;28;20056;-69
2022/10/14 08:16:23;;;;;;;36.35;26.05;;;16.30;99.90;;;16.63;100.00;100987.84;5035433;28;20045;-67
2022/10/14 08:18:52;;;;;;;30.98;24.10;;;16.30;99.90;;;16.61;100.00;100985.22;5035816;28;20045;-67
2022/10/14 08:21:21;;;;;;;33.63;24.17;;;16.30;99.90;;;16.64;100.00;100984.28;5035395;28;20049;-70
2022/10/14 08:23:49;;;;;;;31.70;22.73;;;16.30;99.90;;;16.61;100.00;100985.22;5035690;28;20072;-68
2022/10/14 08:26:22;;;;;;;33.83;23.08;;;16.30;99.90;;;16.55;100.00;100996.06;5035407;28;20046;-68
2022/10/14 08:28:51;;;;;;;25.50;20.45;;;16.30;99.90;;;16.56;100.00;100989.84;5035713;28;20084;-68
2022/10/14 08:31:21;;;;;;;25.15;20.13;;;16.30;99.90;;;16.52;100.00;100989.94;5035111;28;20423;-68
2022/10/14 08:33:50;;;;;;;;;;;16.30;99.90;;;16.52;100.00;100996.16;5035713;28;20049;-68
2022/10/14 08:36:20;;;;;;;22.23;18.40;;;16.30;99.90;;;16.55;100.00;100989.88;5035268;28;19928;-69
2022/10/14 08:38:50;;;;;;;21.35;17.63;;;16.30;99.90;;;16.39;100.00;100978.69;5035509;28;20045;-70
2022/10/14 08:41:25;;;;;;;;;;;16.30;99.90;;;16.25;100.00;100954.16;5036063;28;20132;-68
2022/10/14 08:44:11;;;;;;;18.90;15.82;;;16.30;99.90;;;16.52;100.00;100993.50;5035664;28;19925;-70
2022/10/14 08:46:45;;;;;;;21.00;17.15;;;16.30;99.90;;;16.49;100.00;100998.06;5035394;28;20053;-69
2022/10/14 08:49:26;;;;;;;19.50;16.45;;;16.20;99.90;;;16.51;100.00;100989.06;5035333;28;20049;-68
2022/10/14 08:52:01;;;;;;;22.45;18.02;;;16.30;99.90;;;16.47;100.00;100978.50;5034861;28;20498;-68
2022/10/14 08:54:36;;;;;;;23.45;19.17;;;16.30;99.90;;;16.49;100.00;100979.34;5034944;28;20042;-68
2022/10/14 08:57:06;;;;;;;25.42;19.48;;;16.30;99.90;;;16.34;100.00;100956.56;5035232;28;20057;-67
2022/10/14 08:59:40;;;;;;;25.60;20.35;;;16.20;99.90;;;16.41;100.00;100959.97;5050279;28;20573;-68
2022/10/14 09:02:24;;;;;;;26.70;21.30;;;16.30;99.90;;;16.34;100.00;100969.91;5035267;28;20116;-66
2022/10/14 09:04:52;;;;;;;26.08;20.05;;;16.20;99.90;;;16.42;100.00;100973.25;5034845;28;20049;-66
2022/10/14 09:07:21;;;;;;;23.27;19.83;;;16.20;99.90;;;16.44;100.00;100971.44;5034396;28;20144;-68
2022/10/14 09:09:54;;;;;;;22.77;19.85;;;16.20;99.90;;;16.42;100.00;100969.69;5034390;28;20411;-66
2022/10/14 09:12:28;;;;;;;24.95;20.45;;;16.20;99.90;;;16.47;100.00;100970.47;5033560;28;20053;-68
2022/10/14 09:15:11;;;;;;;24.20;19.38;;;16.20;99.90;;;16.49;100.00;100964.19;5034361;28;20045;-67
2022/10/14 09:17:48;;;;;;;21.30;18.77;;;16.20;99.90;;;16.52;100.00;100969.47;5034583;28;20038;-67
2022/10/14 09:20:22;;;;;;;23.15;18.23;;;16.30;99.90;;;16.56;100.00;100960.44;5033107;28;20045;-65
2022/10/14 09:23:06;;;;;;;22.90;18.50;;;16.30;99.90;;;16.46;100.00;100968.72;5034198;28;20483;-64
2022/10/14 09:25:36;;;;;;;21.05;18.40;;;16.30;99.90;;;16.53;100.00;100971.19;5034114;28;20055;-64
2022/10/14 09:28:04;;;;;;;22.00;18.77;;;16.20;99.90;;;16.61;100.00;100966.53;5034151;28;20065;-64
2022/10/14 09:30:39;;;;;;;19.70;16.70;;;16.30;99.90;;;16.61;100.00;100958.53;5034262;28;20049;-65
2022/10/14 09:33:17;;;;;;;22.58;18.70;;;16.30;99.90;;;16.55;100.00;100966.69;5033913;28;20132;-62
2022/10/14 09:35:45;;;;;;;19.55;17.55;;;16.40;99.90;;;16.67;100.00;100969.03;5033866;28;20076;-66
2022/10/14 09:38:14;;;;;;;20.98;18.70;;;16.40;99.90;;;16.68;100.00;100968.13;5034197;28;20148;-63
2022/10/14 09:40:45;;;;;;;21.27;18.73;;;16.40;99.90;;;16.78;100.00;100966.94;5033713;28;20522;-64
2022/10/14 09:43:20;;;;;;;19.65;17.55;;;16.50;99.90;;;16.80;100.00;100959.75;5034315;28;20072;-65
2022/10/14 09:45:53;;;;;;;19.05;17.02;;;16.50;99.90;;;16.90;100.00;100955.03;5034011;28;20072;-64
2022/10/14 09:48:33;;;;;;;18.35;15.80;;;16.60;99.90;;;16.85;100.00;100960.53;5049251;28;20145;-65
2022/10/14 09:51:05;;;;;;;17.70;15.70;;;16.60;99.90;;;16.89;100.00;100958.63;5033866;28;20137;-65
2022/10/14 09:53:40;;;;;;;18.63;16.67;;;16.60;99.90;;;16.82;100.00;100971.28;5033720;28;20044;-66
2022/10/14 09:56:10;;;;;;;19.83;17.73;;;16.50;99.90;;;16.85;100.00;100963.19;5033735;28;20486;-66
2022/10/14 09:58:44;;;;;;;20.15;18.08;;;16.60;99.90;;;16.85;100.00;100951.63;5033749;28;20038;-67
2022/10/14 10:01:17;;;;;;;20.27;18.17;;;16.60;99.90;;;16.76;100.00;100936.72;5033647;28;20051;-67
2022/10/14 10:03:50;;;;;;;25.30;19.77;;;16.60;99.90;;;17.01;100.00;100964.47;5033279;28;20049;-66
2022/10/14 10:06:24;;;;;;;20.95;18.20;;;16.60;99.90;;;17.02;100.00;100965.34;5033631;28;20095;-65
2022/10/14 10:08:58;;;;;;;19.77;17.77;;;16.70;99.90;;;17.01;100.00;100964.47;5033271;28;20055;-66
2022/10/14 10:11:30;;;;;;;21.80;18.80;;;16.70;99.90;;;16.98;100.00;100947.66;5033904;28;20050;-65
2022/10/14 10:14:15;;;;;;;21.30;18.75;;;16.70;99.90;;;17.00;100.00;100952.06;5033413;28;20100;-66
2022/10/14 10:16:44;;;;;;;20.80;17.58;;;16.70;99.90;;;16.97;100.00;100951.28;5033301;28;20128;-66
2022/10/14 10:19:29;;;;;;;21.93;18.30;;;16.70;99.90;;;16.97;100.00;100949.47;5033790;28;20034;-66